createdAt,value
2022-11-17T00:00:46.855Z,24.05
2022-11-17T00:03:16.079Z,22.27
2022-11-17T00:05:44.694Z,23.02
2022-11-17T00:08:14.683Z,23.88
2022-11-17T00:10:41.539Z,23.00
2022-11-17T00:13:29.714Z,23.08
2022-11-17T00:15:57.778Z,21.58
2022-11-17T00:18:42.934Z,23.15
2022-11-17T00:21:19.262Z,22.17
2022-11-17T00:23:50.554Z,21.30
2022-11-17T00:26:23.984Z,22.45
2022-11-17T00:29:01.808Z,22.48
2022-11-17T00:31:48.607Z,23.25
2022-11-17T00:34:21.455Z,24.27
2022-11-17T00:36:50.598Z,23.70
2022-11-17T00:39:19.210Z,23.67
2022-11-17T00:41:48.565Z,22.42
2022-11-17T00:44:15.659Z,22.02
2022-11-17T00:46:43.501Z,22.35
2022-11-17T00:49:11.686Z,23.38
2022-11-17T00:51:38.567Z,22.63
2022-11-17T00:54:10.049Z,23.25
2022-11-17T00:56:36.928Z,23.02
2022-11-17T00:59:04.224Z,21.73
2022-11-17T01:01:31.853Z,22.50
2022-11-17T01:04:04.568Z,21.58
2022-11-17T01:06:35.947Z,21.88
2022-11-17T01:09:10.150Z,22.30
2022-11-17T01:11:37.438Z,22.05
2022-11-17T01:14:04.658Z,21.33
2022-11-17T01:16:32.340Z,22.52
2022-11-17T01:19:01.173Z,22.30
2022-11-17T01:21:29.246Z,23.10
2022-11-17T01:23:57.987Z,23.92
2022-11-17T01:26:30.898Z,23.27
2022-11-17T01:28:59.775Z,22.45
2022-11-17T01:31:29.521Z,24.83
2022-11-17T01:33:59.479Z,23.33
2022-11-17T01:36:53.797Z,23.88
2022-11-17T01:39:20.627Z,24.05
2022-11-17T01:41:47.521Z,23.20
2022-11-17T01:44:36.272Z,22.75
2022-11-17T01:47:16.142Z,22.05
2022-11-17T01:49:50.065Z,21.40
2022-11-17T01:52:20.658Z,20.83
2022-11-17T01:54:48.665Z,21.55
2022-11-17T01:57:24.334Z,20.27
2022-11-17T02:00:06.069Z,20.50
2022-11-17T02:02:34.871Z,21.13
2022-11-17T02:05:29.177Z,21.08
2022-11-17T02:07:59.467Z,20.35
2022-11-17T02:10:27.217Z,19.33
2022-11-17T02:12:55.155Z,19.60
2022-11-17T02:15:22.969Z,19.17
2022-11-17T02:17:51.316Z,19.10
2022-11-17T02:20:30.852Z,19.63
2022-11-17T02:23:11.767Z,18.63
2022-11-17T02:25:45.759Z,17.58
2022-11-17T02:28:26.248Z,18.00
2022-11-17T02:31:02.066Z,18.55
2022-11-17T02:33:47.717Z,17.90
2022-11-17T02:36:20.883Z,17.70
2022-11-17T02:38:50.316Z,17.30
2022-11-17T02:41:38.150Z,18.13
2022-11-17T02:44:08.474Z,17.70
2022-11-17T02:46:54.256Z,16.10
2022-11-17T02:49:31.472Z,15.23
2022-11-17T02:51:59.483Z,15.30
2022-11-17T02:54:29.866Z,15.75
2022-11-17T02:56:56.734Z,15.63
2022-11-17T02:59:47.464Z,16.55
2022-11-17T03:02:36.002Z,15.07
2022-11-17T03:05:10.714Z,14.95
2022-11-17T03:08:12.105Z,13.77
2022-11-17T03:10:50.959Z,14.05
2022-11-17T03:13:42.569Z,15.65
2022-11-17T03:16:27.885Z,13.73
2022-11-17T03:19:00.754Z,13.27
2022-11-17T03:21:40.451Z,11.70
2022-11-17T03:24:13.197Z,12.93
2022-11-17T03:26:46.027Z,12.25
2022-11-17T03:29:18.239Z,12.40
2022-11-17T03:31:48.499Z,13.20
2022-11-17T03:34:19.538Z,12.32
2022-11-17T03:36:53.951Z,12.13
2022-11-17T03:39:28.019Z,11.95
2022-11-17T03:41:59.888Z,13.77
2022-11-17T03:44:30.124Z,12.30
2022-11-17T03:47:01.412Z,12.93
2022-11-17T03:49:47.578Z,12.52
2022-11-17T03:52:14.338Z,10.82
2022-11-17T03:54:41.198Z,10.52
2022-11-17T03:57:15.457Z,11.55
2022-11-17T04:00:05.012Z,11.30
2022-11-17T04:02:48.475Z,11.05
2022-11-17T04:05:17.668Z,11.10
2022-11-17T04:07:46.804Z,9.87
2022-11-17T04:10:16.391Z,11.27
2022-11-17T04:13:01.618Z,10.77
2022-11-17T04:15:47.445Z,11.05
2022-11-17T04:18:15.289Z,11.77
2022-11-17T04:20:43.066Z,11.27
2022-11-17T04:23:14.702Z,12.82
2022-11-17T04:26:14.564Z,12.40
2022-11-17T04:28:48.450Z,12.45
2022-11-17T04:31:16.507Z,11.52
2022-11-17T04:33:54.566Z,10.82
2022-11-17T04:36:26.345Z,12.40
2022-11-17T04:38:55.327Z,11.40
2022-11-17T04:41:42.112Z,11.95
2022-11-17T04:44:10.567Z,12.52
2022-11-17T04:46:39.190Z,13.23
2022-11-17T04:49:07.318Z,12.82
2022-11-17T04:51:35.029Z,12.90
2022-11-17T04:54:02.779Z,12.55
2022-11-17T04:56:30.035Z,11.45
2022-11-17T04:58:57.183Z,10.50
2022-11-17T05:01:25.342Z,11.10
2022-11-17T05:03:53.242Z,12.38
2022-11-17T05:06:28.559Z,11.00
2022-11-17T05:08:56.576Z,12.95
2022-11-17T05:11:44.531Z,11.18
2022-11-17T05:14:12.284Z,11.18
2022-11-17T05:16:58.009Z,11.63
2022-11-17T05:19:27.249Z,13.70
2022-11-17T05:21:54.653Z,12.10
2022-11-17T05:24:21.921Z,13.15
2022-11-17T05:26:49.777Z,13.90
2022-11-17T05:29:18.793Z,16.88
2022-11-17T05:31:45.827Z,17.48
2022-11-17T05:34:14.337Z,17.58
2022-11-17T05:36:41.827Z,19.52
2022-11-17T05:39:09.345Z,21.60
2022-11-17T05:41:39.423Z,24.20
2022-11-17T05:46:32.866Z,22.35
2022-11-17T05:48:59.806Z,20.73
2022-11-17T05:51:26.746Z,19.67
2022-11-17T05:53:53.434Z,21.20
2022-11-17T05:56:51.079Z,22.63
2022-11-17T05:59:27.294Z,23.83
2022-11-17T06:02:07.409Z,22.95
2022-11-17T06:04:34.795Z,24.85
2022-11-17T06:07:02.598Z,20.95
2022-11-17T06:09:35.044Z,20.70
2022-11-17T06:12:05.902Z,20.83
2022-11-17T06:14:34.539Z,20.23
2022-11-17T06:17:07.117Z,19.77
2022-11-17T06:19:43.717Z,22.70
2022-11-17T06:22:12.615Z,22.50
2022-11-17T06:24:41.997Z,19.40
2022-11-17T06:27:10.787Z,18.88
2022-11-17T06:29:42.652Z,21.00
2022-11-17T06:32:10.895Z,18.70
2022-11-17T06:34:37.687Z,18.73
2022-11-17T06:37:04.373Z,20.48
2022-11-17T06:39:31.005Z,28.15
2022-11-17T06:41:57.697Z,29.67
2022-11-17T06:44:24.435Z,27.17
2022-11-17T06:46:51.093Z,27.85
2022-11-17T06:49:17.800Z,25.95
2022-11-17T06:51:45.556Z,22.67
2022-11-17T06:54:14.860Z,21.02
2022-11-17T06:56:42.201Z,17.38
2022-11-17T06:59:08.996Z,16.70
2022-11-17T07:01:37.087Z,14.43
2022-11-17T07:04:03.856Z,14.65
2022-11-17T07:06:36.157Z,12.93
2022-11-17T07:09:03.203Z,14.13
2022-11-17T07:11:29.872Z,13.88
2022-11-17T07:13:58.300Z,13.88
2022-11-17T07:16:24.991Z,12.32
2022-11-17T07:18:53.096Z,13.70
2022-11-17T07:21:20.154Z,13.25
2022-11-17T07:23:47.239Z,14.20
2022-11-17T07:26:14.437Z,13.13
2022-11-17T07:28:41.271Z,12.18
2022-11-17T07:31:09.129Z,17.80
2022-11-17T07:33:36.810Z,19.48
2022-11-17T07:36:11.256Z,20.27
2022-11-17T07:38:40.141Z,18.40
2022-11-17T07:41:09.010Z,18.30
2022-11-17T07:43:36.930Z,16.13
2022-11-17T07:46:14.680Z,14.38
2022-11-17T07:48:43.405Z,14.63
2022-11-17T07:51:10.513Z,15.70
2022-11-17T07:53:37.207Z,13.02
2022-11-17T07:56:11.407Z,12.32
2022-11-17T07:58:38.945Z,11.57
2022-11-17T08:01:07.536Z,13.27
2022-11-17T08:03:34.422Z,13.57
2022-11-17T08:06:03.046Z,12.82
2022-11-17T08:08:29.774Z,12.93
2022-11-17T08:11:02.753Z,13.15
2022-11-17T08:13:29.435Z,12.60
2022-11-17T08:15:57.367Z,10.52
2022-11-17T08:18:24.077Z,11.95
2022-11-17T08:20:50.933Z,12.60
2022-11-17T08:23:18.094Z,12.25
2022-11-17T08:25:44.875Z,11.23
2022-11-17T08:28:11.595Z,12.38
2022-11-17T08:30:38.265Z,11.68
2022-11-17T08:33:05.024Z,14.13
2022-11-17T08:35:37.438Z,18.13
2022-11-17T08:38:04.486Z,17.98
2022-11-17T08:40:31.236Z,18.05
2022-11-17T08:43:01.568Z,18.58
2022-11-17T08:45:29.006Z,17.88
2022-11-17T08:47:56.623Z,13.13
2022-11-17T08:50:23.720Z,13.95
2022-11-17T08:52:52.154Z,12.05
2022-11-17T08:55:19.345Z,13.15
2022-11-17T08:57:46.065Z,12.63
2022-11-17T09:00:15.374Z,11.75
2022-11-17T09:02:42.107Z,12.20
2022-11-17T09:05:09.141Z,11.88
2022-11-17T09:07:35.854Z,11.77
2022-11-17T09:10:05.459Z,10.90
2022-11-17T09:12:32.610Z,11.52
2022-11-17T09:14:59.290Z,10.30
2022-11-17T09:17:25.988Z,11.57
2022-11-17T09:19:52.622Z,10.93
2022-11-17T09:22:19.896Z,11.35
2022-11-17T09:24:46.608Z,11.80
2022-11-17T09:27:13.919Z,12.50
2022-11-17T09:29:40.612Z,11.15
2022-11-17T09:32:07.321Z,11.93
2022-11-17T09:34:34.176Z,12.43
2022-11-17T09:37:00.992Z,11.98
2022-11-17T09:39:27.832Z,11.68
2022-11-17T09:41:57.370Z,11.68
2022-11-17T09:44:39.824Z,11.52
2022-11-17T09:47:25.814Z,12.60
2022-11-17T09:50:37.996Z,12.68
2022-11-17T09:53:25.243Z,13.70
2022-11-17T09:55:58.033Z,13.90
2022-11-17T09:58:52.749Z,13.65
2022-11-17T10:01:22.009Z,13.57
2022-11-17T10:03:50.893Z,13.32
2022-11-17T10:06:21.474Z,13.82
2022-11-17T10:09:07.002Z,13.77
2022-11-17T10:11:37.300Z,14.10
2022-11-17T10:14:04.269Z,13.10
2022-11-17T10:16:31.488Z,14.15
2022-11-17T10:18:58.482Z,14.20
2022-11-17T10:21:30.427Z,15.35
2022-11-17T10:24:00.066Z,14.13
2022-11-17T10:26:28.057Z,16.58
2022-11-17T10:29:14.210Z,17.52
2022-11-17T10:31:46.263Z,17.65
2022-11-17T10:34:41.653Z,16.58
2022-11-17T10:37:15.228Z,19.38
2022-11-17T10:39:43.289Z,18.25
2022-11-17T10:42:28.551Z,18.02
2022-11-17T10:45:01.571Z,17.00
2022-11-17T10:47:33.743Z,17.42
2022-11-17T10:50:18.391Z,17.38
2022-11-17T10:52:45.673Z,15.75
2022-11-17T10:55:18.827Z,18.30
2022-11-17T10:57:58.794Z,17.48
2022-11-17T11:00:37.379Z,18.20
2022-11-17T11:03:06.610Z,18.02
2022-11-17T11:05:33.622Z,18.33
2022-11-17T11:08:19.831Z,17.50
2022-11-17T11:10:51.522Z,17.33
2022-11-17T11:13:33.082Z,18.92
2022-11-17T11:16:00.085Z,18.00
2022-11-17T11:18:29.968Z,19.15
2022-11-17T11:21:24.347Z,18.00
2022-11-17T11:24:08.874Z,19.52
2022-11-17T11:26:44.841Z,19.50
2022-11-17T11:29:37.514Z,19.52
2022-11-17T11:32:29.249Z,19.85
2022-11-17T11:35:03.998Z,20.33
2022-11-17T11:37:39.924Z,20.35
2022-11-17T11:40:22.268Z,20.98
2022-11-17T11:43:00.411Z,20.05
2022-11-17T11:45:59.223Z,21.00
2022-11-17T11:48:34.347Z,21.60
2022-11-17T11:51:04.070Z,22.15
2022-11-17T11:54:03.441Z,22.85
2022-11-17T11:56:33.911Z,23.73
2022-11-17T11:59:19.722Z,22.77
2022-11-17T12:02:07.233Z,23.75
2022-11-17T12:04:46.886Z,21.77
2022-11-17T12:08:10.207Z,21.65
2022-11-17T12:10:49.287Z,20.92
2022-11-17T12:13:18.280Z,21.05
2022-11-17T12:15:45.134Z,21.70
2022-11-17T12:18:31.522Z,24.70
2022-11-17T12:21:04.928Z,23.13
2022-11-17T12:24:14.035Z,24.63
2022-11-17T12:26:41.241Z,24.08
2022-11-17T12:29:21.187Z,24.85
2022-11-17T12:34:15.341Z,23.15
2022-11-17T12:36:42.183Z,23.20
2022-11-17T12:39:51.763Z,24.88
2022-11-17T12:42:18.627Z,24.58
2022-11-17T12:45:02.413Z,24.65
2022-11-17T12:47:31.809Z,26.48
2022-11-17T12:50:22.492Z,25.65
2022-11-17T12:53:21.721Z,23.88
2022-11-17T12:56:27.464Z,26.90
2022-11-17T12:58:59.926Z,25.92
2022-11-17T13:01:26.524Z,23.30
2022-11-17T13:04:10.486Z,24.35
2022-11-17T13:06:37.551Z,25.75
2022-11-17T13:09:06.860Z,24.50
2022-11-17T13:11:34.344Z,24.30
2022-11-17T13:14:13.095Z,24.35
2022-11-17T13:17:00.389Z,23.90
2022-11-17T13:19:30.133Z,22.33
2022-11-17T13:22:20.150Z,22.88
2022-11-17T13:27:28.294Z,22.13
2022-11-17T13:30:27.809Z,23.25
2022-11-17T13:32:55.885Z,24.58
2022-11-17T13:35:34.766Z,25.02
2022-11-17T13:38:01.589Z,23.55
2022-11-17T13:40:29.217Z,24.38
2022-11-17T13:42:56.632Z,23.42
2022-11-17T13:45:23.385Z,24.48
2022-11-17T13:47:50.887Z,23.10
2022-11-17T13:50:32.217Z,24.05
2022-11-17T13:53:13.607Z,24.50
2022-11-17T13:55:47.371Z,25.65
2022-11-17T13:58:26.263Z,25.20
2022-11-17T14:00:58.501Z,27.00
2022-11-17T14:03:35.840Z,23.48
2022-11-17T14:06:05.177Z,24.13
2022-11-17T14:08:33.484Z,23.88
2022-11-17T14:11:15.783Z,25.38
2022-11-17T14:13:42.542Z,21.52
2022-11-17T14:16:34.149Z,21.73
2022-11-17T14:19:26.099Z,20.92
2022-11-17T14:22:26.187Z,20.95
2022-11-17T14:24:57.430Z,19.60
2022-11-17T14:27:26.943Z,18.60
2022-11-17T14:29:53.644Z,19.35
2022-11-17T14:32:20.273Z,22.00
2022-11-17T14:34:47.103Z,22.58
2022-11-17T14:37:13.987Z,24.25
2022-11-17T14:39:40.710Z,20.05
2022-11-17T14:42:11.186Z,21.35
2022-11-17T14:44:37.912Z,21.88
2022-11-17T14:47:04.531Z,21.10
2022-11-17T14:49:31.931Z,23.95
2022-11-17T14:51:59.413Z,22.35
2022-11-17T14:54:26.408Z,23.70
2022-11-17T14:56:53.069Z,22.67
2022-11-17T14:59:19.943Z,22.77
2022-11-17T15:01:46.689Z,24.33
2022-11-17T15:04:43.353Z,22.98
2022-11-17T15:07:03.463Z,24.53
2022-11-17T15:09:31.585Z,22.85
2022-11-17T15:11:58.277Z,22.27
2022-11-17T15:14:25.095Z,22.73
2022-11-17T15:16:51.799Z,21.02
2022-11-17T15:19:18.703Z,27.77
2022-11-17T15:21:45.412Z,25.77
2022-11-17T15:24:12.221Z,25.58
2022-11-17T15:26:39.036Z,42.70
2022-11-17T15:29:05.738Z,35.95
2022-11-17T15:31:32.376Z,35.60
2022-11-17T15:33:58.970Z,44.60
2022-11-17T15:36:25.776Z,34.65
2022-11-17T15:38:53.481Z,36.28
2022-11-17T15:41:21.283Z,52.63
2022-11-17T15:43:48.069Z,40.70
2022-11-17T15:46:19.078Z,33.38
2022-11-17T15:48:49.087Z,39.45
2022-11-17T15:56:16.689Z,39.35
2022-11-17T15:58:43.951Z,34.28
2022-11-17T16:01:26.169Z,24.92
2022-11-17T16:03:57.834Z,26.20
2022-11-17T16:06:24.584Z,27.17
2022-11-17T16:08:51.225Z,28.65
2022-11-17T16:11:17.990Z,25.73
2022-11-17T16:13:44.769Z,28.35
2022-11-17T16:16:15.798Z,27.73
2022-11-17T16:18:42.539Z,33.17
2022-11-17T16:21:13.520Z,29.73
2022-11-17T16:23:49.967Z,25.92
2022-11-17T16:26:19.148Z,24.17
2022-11-17T16:28:48.824Z,30.37
2022-11-17T16:31:24.510Z,29.70
2022-11-17T16:33:55.569Z,32.47
2022-11-17T16:36:25.017Z,28.80
2022-11-17T16:39:00.735Z,30.80
2022-11-17T16:41:32.694Z,30.95
2022-11-17T16:44:00.315Z,30.48
2022-11-17T16:46:29.468Z,31.15
2022-11-17T16:48:56.975Z,29.95
2022-11-17T16:51:23.811Z,30.98
2022-11-17T16:54:02.964Z,33.75
2022-11-17T16:56:30.685Z,35.37
2022-11-17T16:58:58.690Z,32.55
2022-11-17T17:01:27.734Z,33.15
2022-11-17T17:03:56.879Z,33.22
2022-11-17T17:06:24.266Z,31.03
2022-11-17T17:09:03.150Z,30.13
2022-11-17T17:11:32.065Z,37.63
2022-11-17T17:14:04.721Z,36.40
2022-11-17T17:16:33.875Z,32.55
2022-11-17T17:19:02.077Z,28.07
2022-11-17T17:21:29.688Z,30.83
2022-11-17T17:23:57.401Z,33.63
2022-11-17T17:26:26.379Z,47.25
2022-11-17T17:28:56.785Z,57.33
2022-11-17T17:31:25.488Z,51.30
2022-11-17T17:33:52.996Z,51.20
2022-11-17T17:36:24.886Z,67.90
2022-11-17T17:38:56.066Z,62.63
2022-11-17T17:41:25.806Z,50.05
2022-11-17T17:44:04.082Z,53.42
2022-11-17T17:46:33.471Z,48.20
2022-11-17T17:49:00.192Z,43.38
2022-11-17T17:51:28.731Z,41.63
2022-11-17T17:53:58.276Z,65.78
2022-11-17T17:56:25.510Z,49.67
2022-11-17T17:58:54.916Z,50.45
2022-11-17T18:01:24.563Z,62.50
2022-11-17T18:03:53.970Z,57.90
2022-11-17T18:06:22.255Z,37.15
2022-11-17T18:08:49.454Z,34.65
2022-11-17T18:11:18.537Z,34.78
2022-11-17T18:13:49.920Z,45.13
2022-11-17T18:16:25.287Z,36.25
2022-11-17T18:19:06.556Z,37.10
2022-11-17T18:21:33.934Z,42.28
2022-11-17T18:24:02.073Z,35.33
2022-11-17T18:26:36.153Z,51.72
2022-11-17T18:29:11.546Z,45.10
2022-11-17T18:31:38.393Z,38.42
2022-11-17T18:34:08.306Z,42.97
2022-11-17T18:39:03.583Z,28.80
2022-11-17T18:41:31.216Z,29.38
2022-11-17T18:43:58.786Z,33.50
2022-11-17T18:46:27.467Z,38.35
2022-11-17T18:48:54.207Z,40.67
2022-11-17T18:51:26.258Z,34.45
2022-11-17T18:53:54.408Z,41.53
2022-11-17T18:56:23.952Z,46.50
2022-11-17T18:58:51.223Z,44.28
2022-11-17T19:01:27.915Z,36.22
2022-11-17T19:03:56.662Z,36.20
2022-11-17T19:06:25.004Z,34.72
2022-11-17T19:08:52.814Z,32.47
2022-11-17T19:11:21.240Z,37.58
2022-11-17T19:13:52.365Z,38.45
2022-11-17T19:16:26.534Z,44.80
2022-11-17T19:18:55.087Z,38.50
2022-11-17T19:21:33.644Z,34.75
2022-11-17T19:24:02.769Z,37.20
2022-11-17T19:26:31.834Z,38.33
2022-11-17T19:29:04.133Z,39.77
2022-11-17T19:31:31.270Z,40.58
2022-11-17T19:33:58.302Z,37.30
2022-11-17T19:36:27.601Z,39.05
2022-11-17T19:38:56.105Z,38.70
2022-11-17T19:41:34.713Z,38.58
2022-11-17T19:44:04.030Z,41.13
2022-11-17T19:46:31.694Z,38.13
2022-11-17T19:49:00.718Z,36.92
2022-11-17T19:51:36.885Z,40.65
2022-11-17T19:54:09.250Z,35.10
2022-11-17T19:56:36.550Z,32.00
2022-11-17T19:59:03.759Z,33.97
2022-11-17T20:01:31.586Z,33.15
2022-11-17T20:04:02.815Z,31.13
2022-11-17T20:06:36.991Z,32.60
2022-11-17T20:09:09.062Z,31.25
2022-11-17T20:11:36.489Z,32.83
2022-11-17T20:14:03.451Z,28.58
2022-11-17T20:16:31.985Z,30.17
2022-11-17T20:19:02.459Z,31.38
2022-11-17T20:21:30.764Z,30.63
2022-11-17T20:23:58.976Z,31.40
2022-11-17T20:26:28.476Z,30.90
2022-11-17T20:28:55.372Z,31.67
2022-11-17T20:31:27.906Z,30.27
2022-11-17T20:34:00.645Z,31.77
2022-11-17T20:36:29.562Z,31.60
2022-11-17T20:38:59.077Z,34.00
2022-11-17T20:41:26.560Z,33.83
2022-11-17T20:43:55.353Z,32.55
2022-11-17T20:46:23.215Z,32.88
2022-11-17T20:48:50.975Z,35.47
2022-11-17T20:51:23.566Z,33.33
2022-11-17T20:53:50.764Z,32.05
2022-11-17T20:56:18.251Z,34.53
2022-11-17T20:58:45.784Z,31.92
2022-11-17T21:01:16.071Z,34.67
2022-11-17T21:03:43.605Z,33.47
2022-11-17T21:06:10.790Z,30.58
2022-11-17T21:08:39.544Z,34.17
2022-11-17T21:11:09.375Z,33.50
2022-11-17T21:13:37.995Z,33.63
2022-11-17T21:16:15.393Z,34.80
2022-11-17T21:18:47.271Z,34.70
2022-11-17T21:21:15.239Z,34.45
2022-11-17T21:23:42.945Z,34.50
2022-11-17T21:26:17.021Z,36.60
2022-11-17T21:28:44.095Z,34.28
2022-11-17T21:31:13.250Z,37.63
2022-11-17T21:33:40.734Z,36.20
2022-11-17T21:36:12.345Z,34.95
2022-11-17T21:38:39.795Z,33.25
2022-11-17T21:41:10.003Z,35.60
2022-11-17T21:43:38.727Z,34.88
2022-11-17T21:46:07.890Z,35.13
2022-11-17T21:48:35.550Z,37.30
2022-11-17T21:51:03.090Z,41.97
2022-11-17T21:53:30.174Z,40.33
2022-11-17T21:56:05.508Z,37.50
2022-11-17T21:58:33.562Z,35.72
2022-11-17T22:01:12.002Z,38.53
2022-11-17T22:03:39.947Z,36.03
2022-11-17T22:06:13.234Z,34.30
2022-11-17T22:08:42.322Z,33.67
2022-11-17T22:11:11.905Z,34.10
2022-11-17T22:13:39.161Z,33.70
2022-11-17T22:16:14.066Z,33.38
2022-11-17T22:18:41.701Z,34.67
2022-11-17T22:21:09.294Z,32.35
2022-11-17T22:23:36.052Z,31.40
2022-11-17T22:26:04.663Z,33.58
2022-11-17T22:28:31.398Z,30.48
2022-11-17T22:30:58.087Z,28.77
2022-11-17T22:33:24.748Z,28.10
2022-11-17T22:35:51.519Z,24.92
2022-11-17T22:38:18.223Z,24.67
2022-11-17T22:40:45.384Z,24.65
2022-11-17T22:43:15.255Z,23.13
2022-11-17T22:45:42.445Z,21.60
2022-11-17T22:48:09.645Z,21.02
2022-11-17T22:50:36.788Z,24.65
2022-11-17T22:53:04.038Z,23.33
2022-11-17T22:55:33.568Z,25.80
2022-11-17T22:58:00.255Z,24.15
2022-11-17T23:00:27.279Z,24.83
2022-11-17T23:02:54.095Z,24.63
2022-11-17T23:05:20.864Z,24.33
2022-11-17T23:07:47.733Z,27.00
2022-11-17T23:10:14.882Z,26.83
2022-11-17T23:12:41.676Z,25.27
2022-11-17T23:15:08.717Z,26.48
2022-11-17T23:17:35.481Z,26.35
2022-11-17T23:20:03.500Z,28.58
2022-11-17T23:22:30.227Z,27.58
2022-11-17T23:24:57.009Z,27.85
2022-11-17T23:27:23.684Z,25.27
2022-11-17T23:29:50.360Z,27.33
2022-11-17T23:32:17.458Z,25.98
2022-11-17T23:34:44.184Z,25.30
2022-11-17T23:37:11.008Z,23.98
2022-11-17T23:39:37.816Z,23.70
2022-11-17T23:42:05.300Z,22.27
2022-11-17T23:44:32.136Z,23.30
2022-11-17T23:46:58.806Z,22.80
2022-11-17T23:49:25.539Z,20.88
2022-11-17T23:51:52.286Z,18.05
2022-11-17T23:54:19.069Z,17.92
2022-11-17T23:56:45.772Z,17.30
2022-11-17T23:59:12.466Z,16.80
